Seward, AK

8:21 AM AKDT on April 26, 2015 (GMT -0800)
Oak Street Forest Acres Seward Alaska | | Change Station
CLOSE
Current Station
Personal Weather Station
Location: Seward, AK
Elevation: 144 ft
Nearby Weather Stations

Elev 144 ft 60.14 °N, 149.44 °W | Updated 52 seconds ago

Overcast
Overcast
45.0 °F
Feels Like 45 °F
N
0.0
Wind Variable Wind from SW

Today
High -- | Low -- °F
--% Chance of Precip.
Yesterday
High -- | Low -- °F
Precip. -- in
6:08 AM 9:43 PM
First Quarter, 56% visible
Pressure 29.57 in
Visibility 10.0 miles
Clouds Overcast 10000 ft
Windchill 45 °F
Dew Point 26 °F
Humidity 48%
Rainfall 0.00 in
Snow Depth Not available.
UV 15.0 out of 12
Pollen Not available.
Air Quality Not available.
Flu Activity Sporadic
METAR PAWD 261553Z AUTO 03014G20KT 10SM OVC100 07/M04 A2957 RMK AO2 SLP013 T00671039 TSNO

More Conditions Fewer Conditions

Pressure 29.57 in
Visibility 10.0 miles
Clouds Overcast 10000 ft
Windchill 45 °F
Dew Point 26 °F
Humidity 48%
Rainfall 0.00 in
Snow Depth Not available.
UV 15.0 out of 12
Pollen Not available.
Air Quality Not available.
Flu Activity Sporadic
METAR PAWD 261553Z AUTO 03014G20KT 10SM OVC100 07/M04 A2957 RMK AO2 SLP013 T00671039 TSNO

More Conditions Fewer Conditions

10-Day Weather Forecast

Almanac

Astronomy

Apr. 26, 2015 Rise Set
Actual Time
Civil Twilight
Nautical Twilight
Astronomical Twilight
Moon
Length of Visible Light
Length of Day
Tomorrow will be .
, % of the Moon is Illuminated

Today's Extremes

State Highs State Lows

Community

WunderPhotos

Upload Photos

1,817,049 photos uploaded!

WunderBlogs® & News

Nearby

Air Quality

  Air Quality AQ Index Pollutant
Not available.

Snow Depth

Station Depth Elevation

Earthquake Activity

City Distance Mag. Time & Date
Minimum magnitude displayed is 2.5.

Coastal Water Temperatures

Place Temperature

Stations

Nearby Weather Stations

Station Location Temp. Windchill Dew Point Humidity Wind Precip. Elev Updated Type